createdAt,value
2022-11-08T00:02:08.979Z,8.48
2022-11-08T00:07:12.009Z,8.35
2022-11-08T00:12:14.168Z,5.13
2022-11-08T00:17:17.657Z,5.63
2022-11-08T00:22:19.908Z,4.75
2022-11-08T00:27:23.864Z,6.35
2022-11-08T00:32:26.265Z,6.55
2022-11-08T00:37:27.784Z,5.15
2022-11-08T00:42:29.294Z,6.53
2022-11-08T00:47:30.819Z,4.90
2022-11-08T00:52:32.408Z,6.32
2022-11-08T00:57:47.192Z,6.93
2022-11-08T01:02:55.422Z,8.63
2022-11-08T01:07:56.933Z,6.68
2022-11-08T01:12:58.552Z,8.05
2022-11-08T01:18:00.088Z,6.80
2022-11-08T01:23:01.858Z,5.63
2022-11-08T01:28:03.763Z,5.43
2022-11-08T01:33:06.084Z,15.85
2022-11-08T01:38:07.855Z,8.18
2022-11-08T01:43:29.562Z,8.02
2022-11-08T01:48:31.539Z,7.00
2022-11-08T01:53:33.231Z,8.68
2022-11-08T01:58:36.169Z,5.45
2022-11-08T02:03:38.823Z,5.78
2022-11-08T02:08:44.561Z,8.15
2022-11-08T02:13:46.138Z,10.05
2022-11-08T02:18:48.789Z,8.68
2022-11-08T02:24:08.137Z,5.63
2022-11-08T02:29:30.031Z,5.55
2022-11-08T02:34:49.100Z,9.50
2022-11-08T02:39:50.689Z,9.95
2022-11-08T02:44:52.216Z,6.20
2022-11-08T02:49:53.753Z,8.80
2022-11-08T02:54:55.265Z,7.32
2022-11-08T02:59:56.777Z,8.45
2022-11-08T03:04:58.301Z,10.07
2022-11-08T03:09:59.832Z,11.15
2022-11-08T03:15:01.339Z,7.38
2022-11-08T03:20:03.417Z,12.65
2022-11-08T03:25:05.336Z,6.97
2022-11-08T03:30:07.727Z,6.30
2022-11-08T03:35:09.698Z,6.05
2022-11-08T03:40:11.805Z,6.45
2022-11-08T03:45:14.225Z,6.97
2022-11-08T03:50:16.687Z,6.35
2022-11-08T03:55:20.518Z,7.20
2022-11-08T04:00:25.449Z,7.60
2022-11-08T04:05:27.969Z,12.40
2022-11-08T04:10:29.528Z,10.25
2022-11-08T04:15:31.657Z,8.38
2022-11-08T04:20:33.277Z,9.70
2022-11-08T04:25:35.379Z,11.85
2022-11-08T04:30:37.401Z,11.95
2022-11-08T04:35:38.883Z,9.18
2022-11-08T04:40:40.414Z,12.07
2022-11-08T04:45:41.974Z,12.52
2022-11-08T04:50:43.523Z,8.52
2022-11-08T04:55:45.017Z,9.20
2022-11-08T05:00:46.533Z,9.30
2022-11-08T05:05:48.046Z,14.48
2022-11-08T05:10:49.557Z,10.98
2022-11-08T05:15:51.039Z,8.82
2022-11-08T05:20:57.257Z,12.23
2022-11-08T05:25:58.751Z,10.10
2022-11-08T05:31:00.589Z,16.60
2022-11-08T05:36:14.014Z,21.48
2022-11-08T05:41:18.274Z,12.32
2022-11-08T05:46:21.521Z,8.60
2022-11-08T05:51:23.416Z,12.90
2022-11-08T05:56:25.009Z,12.82
2022-11-08T06:01:26.721Z,9.75
2022-11-08T06:06:28.355Z,7.65
2022-11-08T06:11:29.860Z,18.27
2022-11-08T06:16:31.348Z,11.95
2022-11-08T06:21:32.882Z,9.18
2022-11-08T06:26:35.194Z,7.03
2022-11-08T06:31:41.830Z,6.47
2022-11-08T06:36:44.552Z,7.32
2022-11-08T06:41:46.093Z,8.00
2022-11-08T06:46:47.667Z,10.00
2022-11-08T06:51:49.776Z,5.03
2022-11-08T06:56:51.307Z,5.50
2022-11-08T07:01:53.565Z,6.07
2022-11-08T07:06:55.743Z,5.35
2022-11-08T07:11:57.279Z,7.05
2022-11-08T07:16:58.756Z,6.00
2022-11-08T07:22:00.303Z,10.80
2022-11-08T07:27:01.863Z,7.32
2022-11-08T07:32:03.675Z,3.95
2022-11-08T07:37:05.172Z,5.25
2022-11-08T07:42:06.738Z,4.10
2022-11-08T07:47:09.850Z,3.13
2022-11-08T07:52:11.362Z,7.00
2022-11-08T07:57:12.960Z,3.40
2022-11-08T08:02:14.935Z,5.15
2022-11-08T08:07:16.520Z,4.30
2022-11-08T08:12:18.044Z,4.55
2022-11-08T08:17:19.548Z,6.00
2022-11-08T08:22:21.103Z,5.75
2022-11-08T08:27:22.694Z,3.47
2022-11-08T08:32:27.154Z,3.67
2022-11-08T08:42:33.923Z,10.63
2022-11-08T08:47:35.528Z,4.38
2022-11-08T08:52:37.038Z,4.72
2022-11-08T08:57:38.574Z,6.03
2022-11-08T09:02:42.464Z,2.55
2022-11-08T09:07:44.338Z,4.18
2022-11-08T09:12:45.864Z,4.05
2022-11-08T09:17:47.912Z,2.85
2022-11-08T09:22:50.063Z,5.00
2022-11-08T09:27:54.252Z,3.03
2022-11-08T09:33:01.341Z,3.33
2022-11-08T09:38:03.849Z,1.90
2022-11-08T09:43:32.466Z,2.20
2022-11-08T09:48:42.812Z,4.13
2022-11-08T09:53:50.161Z,2.88
2022-11-08T09:58:54.585Z,6.65
2022-11-08T10:04:00.185Z,2.63
2022-11-08T10:09:20.134Z,8.10
2022-11-08T10:15:09.309Z,2.72
2022-11-08T10:20:29.058Z,2.85
2022-11-08T10:25:38.649Z,5.35
2022-11-08T10:30:42.730Z,3.53
2022-11-08T10:35:49.540Z,3.38
2022-11-08T10:41:41.007Z,5.20
2022-11-08T10:46:45.595Z,2.40
2022-11-08T10:51:50.757Z,2.13
2022-11-08T10:56:55.364Z,4.35
2022-11-08T11:01:56.971Z,3.97
2022-11-08T11:07:34.409Z,3.10
2022-11-08T11:12:35.953Z,2.00
2022-11-08T11:17:40.077Z,3.22
2022-11-08T11:22:46.355Z,3.35
2022-11-08T11:27:59.492Z,4.38
2022-11-08T11:33:06.794Z,2.30
2022-11-08T11:38:35.743Z,2.38
2022-11-08T11:43:44.244Z,2.88
2022-11-08T11:48:49.534Z,2.50
2022-11-08T11:53:51.068Z,3.53
2022-11-08T11:59:06.393Z,3.17
2022-11-08T12:04:24.283Z,4.80
2022-11-08T12:09:40.069Z,2.80
2022-11-08T12:15:00.353Z,1.70
2022-11-08T12:20:27.540Z,3.22
2022-11-08T12:25:45.587Z,3.55
2022-11-08T12:30:56.568Z,3.15
2022-11-08T12:36:26.097Z,4.10
2022-11-08T12:41:27.624Z,2.75
2022-11-08T12:46:34.825Z,4.68
2022-11-08T12:51:48.479Z,4.57
2022-11-08T12:56:52.853Z,3.58
2022-11-08T13:01:55.417Z,3.95
2022-11-08T13:07:08.462Z,2.75
2022-11-08T13:12:22.004Z,3.80
2022-11-08T13:17:25.230Z,4.10
2022-11-08T13:22:29.669Z,2.90
2022-11-08T13:27:44.354Z,4.45
2022-11-08T13:32:54.427Z,5.22
2022-11-08T13:38:21.141Z,3.35
2022-11-08T13:43:34.778Z,4.28
2022-11-08T13:48:40.594Z,4.60
2022-11-08T13:53:45.945Z,4.97
2022-11-08T13:58:47.498Z,3.40
2022-11-08T14:03:49.012Z,3.50
2022-11-08T14:09:08.647Z,2.33
2022-11-08T14:14:28.156Z,2.95
2022-11-08T14:19:32.920Z,2.10
2022-11-08T14:24:38.193Z,4.50
2022-11-08T14:29:40.510Z,3.67
2022-11-08T14:34:42.274Z,4.32
2022-11-08T14:39:46.179Z,3.97
2022-11-08T14:44:47.894Z,4.82
2022-11-08T14:49:49.503Z,2.35
2022-11-08T14:55:01.501Z,3.75
2022-11-08T15:00:06.278Z,4.60
2022-11-08T15:05:26.928Z,3.00
2022-11-08T15:10:28.969Z,3.72
2022-11-08T15:15:33.754Z,4.55
2022-11-08T15:20:35.339Z,3.42
2022-11-08T15:25:37.158Z,2.65
2022-11-08T15:30:42.314Z,2.97
2022-11-08T15:35:47.001Z,2.95
2022-11-08T15:40:51.494Z,5.32
2022-11-08T15:45:53.590Z,3.05
2022-11-08T15:50:56.013Z,4.78
2022-11-08T15:55:59.181Z,4.05
2022-11-08T16:01:02.653Z,4.15
2022-11-08T16:06:04.299Z,4.03
2022-11-08T16:11:10.090Z,2.80
2022-11-08T16:16:14.137Z,15.67
2022-11-08T16:21:15.654Z,10.35
2022-11-08T16:26:18.144Z,13.73
2022-11-08T16:31:19.666Z,13.75
2022-11-08T16:36:23.214Z,35.20
2022-11-08T16:41:25.986Z,10.02
2022-11-08T16:46:28.724Z,7.22
2022-11-08T16:51:30.214Z,5.78
2022-11-08T16:56:31.797Z,2.92
2022-11-08T17:01:34.310Z,5.15
2022-11-08T17:06:36.036Z,4.53
2022-11-08T17:11:37.565Z,7.72
2022-11-08T17:16:39.065Z,4.07
2022-11-08T17:21:45.555Z,2.95
2022-11-08T17:26:47.455Z,5.32
2022-11-08T17:31:49.576Z,3.00
2022-11-08T17:36:51.103Z,4.78
2022-11-08T17:41:52.722Z,3.38
2022-11-08T17:46:54.253Z,2.38
2022-11-08T17:51:55.777Z,4.75
2022-11-08T17:56:57.391Z,2.63
2022-11-08T18:01:59.004Z,2.97
2022-11-08T18:07:00.661Z,2.72
2022-11-08T18:12:02.215Z,3.55
2022-11-08T18:17:03.761Z,3.20
2022-11-08T18:22:05.341Z,5.55
2022-11-08T18:27:06.856Z,4.95
2022-11-08T18:32:08.439Z,6.78
2022-11-08T18:37:09.961Z,3.17
2022-11-08T18:42:11.577Z,5.15
2022-11-08T18:47:13.080Z,8.40
2022-11-08T18:52:14.653Z,3.45
2022-11-08T18:57:16.233Z,3.45
2022-11-08T19:02:17.803Z,3.80
2022-11-08T19:07:19.373Z,3.25
2022-11-08T19:12:21.321Z,2.63
2022-11-08T19:17:22.896Z,5.07
2022-11-08T19:22:24.491Z,3.50
2022-11-08T19:27:26.004Z,1.98
2022-11-08T19:32:27.613Z,2.78
2022-11-08T19:37:29.178Z,3.67
2022-11-08T19:42:31.981Z,3.17
2022-11-08T19:47:33.509Z,4.20
2022-11-08T19:52:34.994Z,2.05
2022-11-08T19:57:36.542Z,3.75
2022-11-08T20:02:38.026Z,4.50
2022-11-08T20:07:39.546Z,4.07
2022-11-08T20:12:41.171Z,3.85
2022-11-08T20:17:42.776Z,3.58
2022-11-08T20:22:48.025Z,3.03
2022-11-08T20:27:49.924Z,2.75
2022-11-08T20:32:51.502Z,3.03
2022-11-08T20:37:56.818Z,3.17
2022-11-08T20:42:58.609Z,3.65
2022-11-08T20:48:02.675Z,4.30
2022-11-08T20:53:04.540Z,5.25
2022-11-08T20:58:08.166Z,3.53
2022-11-08T21:03:10.499Z,1.95
2022-11-08T21:08:58.501Z,3.67
2022-11-08T21:13:37.603Z,1.90
2022-11-08T21:18:39.608Z,1.42
2022-11-08T21:23:43.161Z,1.70
2022-11-08T21:28:45.777Z,2.65
2022-11-08T21:33:47.524Z,1.77
2022-11-08T21:38:49.250Z,3.20
2022-11-08T21:43:50.904Z,2.30
2022-11-08T21:48:54.922Z,5.38
2022-11-08T21:53:57.922Z,2.85
2022-11-08T21:59:00.898Z,2.40
2022-11-08T22:04:02.505Z,2.83
2022-11-08T22:09:04.187Z,2.50
2022-11-08T22:14:05.660Z,1.73
2022-11-08T22:19:07.619Z,2.83
2022-11-08T22:24:14.964Z,1.80
2022-11-08T22:29:17.259Z,1.85
2022-11-08T22:34:19.047Z,2.28
2022-11-08T22:39:22.753Z,2.80
2022-11-08T22:44:24.243Z,2.75
2022-11-08T22:49:25.725Z,3.95
2022-11-08T22:54:27.243Z,1.52
2022-11-08T22:59:28.777Z,2.45
2022-11-08T23:04:30.293Z,1.70
2022-11-08T23:09:31.806Z,1.13
2022-11-08T23:14:37.205Z,2.85
2022-11-08T23:19:39.275Z,1.77
2022-11-08T23:24:41.586Z,2.53
2022-11-08T23:29:43.161Z,2.40
2022-11-08T23:34:44.675Z,3.00
2022-11-08T23:39:46.191Z,3.10
2022-11-08T23:44:47.706Z,2.33
2022-11-08T23:49:49.251Z,4.50
2022-11-08T23:54:50.754Z,2.50
2022-11-08T23:59:52.344Z,2.60
